Time;durP1;ratioP1;P1;durP2;ratioP2;P2;SDS_P1;SDS_P2;PMS_P1;PMS_P2;Temp;Humidity;BMP_temperature;BMP_pressure;BME280_temperature;BME280_humidity;BME280_pressure;Samples;Min_cycle;Max_cycle;Signal;HPM_P1;HPM_P2
2023/07/27 00:02:22;;;;;;;20.50;18.00;;;;;;;20.34;100.00;98343.96;108752;1234;72468;-78
2023/07/27 00:04:49;;;;;;;24.70;20.00;;;;;;;20.35;100.00;98346.59;108753;1237;70810;-80
2023/07/27 00:07:15;;;;;;;38.60;23.40;;;;;;;20.32;100.00;98335.23;108681;1235;71087;-79
2023/07/27 00:09:42;;;;;;;32.20;23.40;;;;;;;20.24;100.00;98326.39;108643;1236;60440;-79
2023/07/27 00:12:08;;;;;;;28.30;22.20;;;;;;;20.15;100.00;98329.02;108709;1236;60852;-80
2023/07/27 00:14:35;;;;;;;28.80;21.00;;;;;;;20.10;100.00;98324.16;108757;1236;73557;-79
2023/07/27 00:17:02;;;;;;;30.80;21.90;;;;;;;20.08;100.00;98321.55;108803;1234;60549;-79
2023/07/27 00:19:29;;;;;;;27.40;22.20;;;;;;;20.04;100.00;98326.64;108739;1237;72315;-78
2023/07/27 00:21:56;;;;;;;25.90;21.50;;;;;;;19.97;100.00;98325.11;108745;1236;61743;-79
2023/07/27 00:24:23;;;;;;;25.40;21.10;;;;;;;19.90;100.00;98324.23;108776;1234;60421;-79
2023/07/27 00:26:49;;;;;;;23.60;20.50;;;;;;;19.81;100.00;98322.17;108758;1237;72349;-79
2023/07/27 00:29:16;;;;;;;26.40;20.60;;;;;;;19.73;100.00;98321.29;108736;1237;60336;-78
2023/07/27 00:31:42;;;;;;;23.50;19.20;;;;;;;19.65;100.00;98321.14;108750;1237;60522;-80
2023/07/27 00:34:09;;;;;;;24.50;19.50;;;;;;;19.57;100.00;98319.54;108729;1237;60529;-79
2023/07/27 00:36:36;;;;;;;25.40;19.60;;;;;;;19.52;100.00;98317.53;108660;1243;60480;-79
2023/07/27 00:39:03;;;;;;;23.10;18.60;;;;;;;19.51;100.00;98319.38;108580;1238;73784;-79
2023/07/27 00:41:30;;;;;;;24.90;18.30;;;;;;;19.51;100.00;98318.32;108782;1237;70986;-80
2023/07/27 00:43:56;;;;;;;23.20;17.80;;;;;;;19.50;100.00;98309.80;108744;1234;72285;-80
2023/07/27 00:46:23;;;;;;;22.10;17.20;;;;;;;19.49;100.00;98295.52;108721;1235;60542;-81
2023/07/27 00:48:50;;;;;;;21.20;16.10;;;;;;;19.50;100.00;98289.05;108721;1238;60413;-78
2023/07/27 00:51:16;;;;;;;21.50;15.20;;;;;;;19.53;100.00;98298.38;108718;1234;72389;-79
2023/07/27 00:53:43;;;;;;;22.60;16.70;;;;;;;19.56;100.00;98304.29;108695;1236;69341;-79
2023/07/27 00:56:10;;;;;;;26.20;18.20;;;;;;;19.60;100.00;98305.70;108546;1238;73312;-78
2023/07/27 00:58:36;;;;;;;21.70;17.60;;;;;;;19.61;100.00;98305.64;108706;1238;61715;-80
2023/07/27 01:01:03;;;;;;;18.80;15.60;;;;;;;19.61;100.00;98305.77;108709;1235;60292;-78
2023/07/27 01:03:30;;;;;;;22.10;16.50;;;;;;;19.63;100.00;98311.48;108627;1238;74284;-79
2023/07/27 01:05:56;;;;;;;21.20;16.20;;;;;;;19.66;100.00;98312.98;108936;1238;70055;-80
2023/07/27 01:08:23;;;;;;;23.10;16.50;;;;;;;19.70;100.00;98312.34;108783;1237;72575;-80
2023/07/27 01:11:05;;;;;;;26.70;18.00;;;;;;;19.73;100.00;98302.10;108743;1236;60436;-79
2023/07/27 01:13:39;;;;;;;28.50;19.30;;;;;;;19.75;100.00;98295.48;108663;1236;60424;-80
2023/07/27 01:16:08;;;;;;;48.10;25.00;;;;;;;19.75;100.00;98296.64;108639;1236;73853;-79
2023/07/27 01:18:51;;;;;;;44.50;23.80;;;;;;;19.72;100.00;98293.77;108702;1240;70818;-79
2023/07/27 01:21:20;;;;;;;34.20;20.90;;;;;;;19.72;100.00;98298.84;108735;1238;71001;-78
2023/07/27 01:24:01;;;;;;;24.30;16.90;;;;;;;19.72;100.00;98302.34;108751;1234;60440;-78
2023/07/27 01:27:20;;;;;;;22.20;18.70;;;;;;;19.74;100.00;98311.27;108696;1234;60432;-80
2023/07/27 01:30:24;;;;;;;24.50;18.90;;;;;;;19.77;100.00;98315.67;108446;1235;73586;-80
2023/07/27 01:32:59;;;;;;;25.70;19.60;;;;;;;19.79;100.00;98318.14;108720;1237;69918;-79
2023/07/27 01:35:31;;;;;;;28.60;21.10;;;;;;;19.77;100.00;98309.38;108776;1235;72520;-80
2023/07/27 01:37:57;;;;;;;30.20;22.10;;;;;;;19.75;100.00;98301.94;108693;1233;62112;-79
2023/07/27 01:40:24;;;;;;;31.10;22.80;;;;;;;19.69;100.00;98294.98;108647;1234;60430;-80
2023/07/27 01:42:50;;;;;;;29.90;24.20;;;;;;;19.63;100.00;98288.59;108690;1236;60551;-79
2023/07/27 01:45:17;;;;;;;35.40;25.10;;;;;;;19.55;100.00;98279.15;108737;1236;60539;-79
2023/07/27 01:47:44;;;;;;;36.20;24.30;;;;;;;19.49;100.00;98277.77;108719;1236;60388;-80
2023/07/27 01:50:11;;;;;;;36.20;23.60;;;;;;;19.43;100.00;98279.52;108630;1237;60470;-79
2023/07/27 01:52:38;;;;;;;39.50;22.30;;;;;;;19.40;100.00;98284.42;108651;1237;60494;-78
2023/07/27 01:55:05;;;;;;;37.60;25.50;;;;;;;19.37;100.00;98284.87;108695;1237;61030;-79
2023/07/27 01:57:32;;;;;;;37.70;24.30;;;;;;;19.32;100.00;98277.48;108638;1235;71123;-79
2023/07/27 01:59:58;;;;;;;44.80;23.70;;;;;;;19.25;100.00;98272.81;108575;1238;72462;-79
2023/07/27 02:02:25;;;;;;;36.30;23.60;;;;;;;19.19;100.00;98268.02;108559;1239;61842;-78
2023/07/27 02:04:52;;;;;;;36.00;23.70;;;;;;;19.15;100.00;98265.50;108587;1235;60535;-80
2023/07/27 02:07:19;;;;;;;38.70;24.70;;;;;;;19.13;100.00;98263.36;108770;1235;72556;-78
2023/07/27 02:09:45;;;;;;;31.60;22.30;;;;;;;19.14;100.00;98260.86;108676;1234;71006;-79
2023/07/27 02:12:18;;;;;;;32.50;23.50;;;;;;;19.16;100.00;98257.26;108698;1233;72536;-79
2023/07/27 02:14:49;;;;;;;30.90;22.00;;;;;;;19.19;100.00;98265.02;108809;1236;61710;-80
2023/07/27 02:17:24;;;;;;;37.80;23.80;;;;;;;19.22;100.00;98273.07;108759;1235;60376;-80
2023/07/27 02:19:57;;;;;;;30.90;21.90;;;;;;;19.25;100.00;98281.13;108764;1234;72283;-78
2023/07/27 02:22:23;;;;;;;36.60;22.30;;;;;;;19.26;100.00;98271.41;108716;1234;70780;-79
2023/07/27 02:24:50;;;;;;;26.00;18.80;;;;;;;19.25;100.00;98258.95;108531;1234;72204;-76
2023/07/27 02:27:17;;;;;;;22.80;18.00;;;;;;;19.20;100.00;98244.13;108553;1235;61655;-78
2023/07/27 02:29:43;;;;;;;26.60;17.00;;;;;;;19.15;100.00;98228.58;108720;1238;60528;-79
2023/07/27 02:32:10;;;;;;;22.80;16.10;;;;;;;19.13;100.00;98201.23;108708;1237;60451;-78
2023/07/27 02:34:37;;;;;;;20.80;16.60;;;;;;;19.09;100.00;98171.98;108887;1234;71034;-78
2023/07/27 02:37:05;;;;;;;26.10;18.70;;;;;;;19.06;100.00;98150.24;108726;1234;72353;-80
2023/07/27 02:39:32;;;;;;;27.30;17.90;;;;;;;19.04;100.00;98144.66;108542;1239;60913;-81
2023/07/27 02:41:59;;;;;;;21.30;16.00;;;;;;;19.02;100.00;98157.96;108775;1235;61100;-80
2023/07/27 02:44:26;;;;;;;17.60;13.30;;;;;;;19.01;100.00;98190.92;108762;1238;72206;-78
2023/07/27 02:46:52;;;;;;;17.70;14.70;;;;;;;19.02;100.00;98242.70;108760;1236;70842;-76
2023/07/27 02:49:19;;;;;;;19.80;14.70;;;;;;;19.06;100.00;98282.30;108575;1235;71032;-78
2023/07/27 02:51:45;;;;;;;21.20;15.80;;;;;;;19.11;100.00;98289.66;108542;1238;60593;-77
2023/07/27 02:54:13;;;;;;;18.80;14.70;;;;;;;19.17;100.00;98289.04;108578;1238;60438;-78
2023/07/27 02:56:39;;;;;;;17.40;13.80;;;;;;;19.20;100.00;98298.13;108765;1236;73553;-78
2023/07/27 02:59:06;;;;;;;16.80;13.50;;;;;;;19.20;100.00;98301.67;108611;1234;70211;-78
2023/07/27 03:01:38;;;;;;;15.80;12.70;;;;;;;19.19;100.00;98300.94;108575;1234;72387;-78
2023/07/27 03:04:07;;;;;;;17.30;12.00;;;;;;;19.20;100.00;98287.83;108779;1233;61766;-78
2023/07/27 03:06:35;;;;;;;13.70;12.20;;;;;;;19.23;100.00;98277.08;108594;1235;60889;-78
2023/07/27 03:09:02;;;;;;;14.60;12.50;;;;;;;19.27;100.00;98267.66;108749;1236;73564;-78
2023/07/27 03:11:30;;;;;;;15.60;12.90;;;;;;;19.31;100.00;98264.23;108846;1235;70582;-78
2023/07/27 03:13:58;;;;;;;15.00;13.40;;;;;;;19.36;100.00;98268.98;108779;1235;72452;-78
2023/07/27 03:16:25;;;;;;;14.20;12.60;;;;;;;19.39;100.00;98284.53;108694;1235;62194;-78
2023/07/27 03:18:52;;;;;;;15.50;12.20;;;;;;;19.42;100.00;98294.39;108771;1235;60539;-78
2023/07/27 03:21:18;;;;;;;22.90;13.40;;;;;;;19.44;100.00;98308.96;108630;1234;72279;-78
2023/07/27 03:23:49;;;;;;;15.60;12.60;;;;;;;19.45;100.00;98334.09;108752;1237;69937;-78
2023/07/27 03:26:16;;;;;;;17.00;13.00;;;;;;;19.47;100.00;98352.48;108576;1234;72640;-79
2023/07/27 03:28:43;;;;;;;14.60;12.80;;;;;;;19.48;100.00;98347.02;108655;1235;61724;-78
2023/07/27 03:31:17;;;;;;;14.60;13.00;;;;;;;19.49;100.00;98348.30;108750;1237;60351;-77
2023/07/27 03:33:44;;;;;;;14.70;13.10;;;;;;;19.52;100.00;98349.47;108663;1237;73571;-78
2023/07/27 03:36:11;;;;;;;16.10;13.80;;;;;;;19.53;100.00;98346.71;108549;1235;69500;-78
2023/07/27 03:38:37;;;;;;;16.20;13.20;;;;;;;19.55;100.00;98350.13;108733;1235;72380;-78
2023/07/27 03:41:04;;;;;;;15.30;12.90;;;;;;;19.56;100.00;98342.60;108698;1233;60530;-78
2023/07/27 03:43:33;;;;;;;16.30;12.00;;;;;;;19.58;100.00;98345.56;108690;1232;60434;-77
2023/07/27 03:46:00;;;;;;;16.00;12.30;;;;;;;19.61;100.00;98341.62;108727;1234;60628;-77
2023/07/27 03:48:27;;;;;;;18.30;14.00;;;;;;;19.63;100.00;98328.91;108492;1235;70856;-78
2023/07/27 03:50:54;;;;;;;19.30;13.50;;;;;;;19.67;100.00;98318.79;108492;1239;72547;-79
2023/07/27 03:53:20;;;;;;;16.80;14.40;;;;;;;19.70;100.00;98309.45;108703;1234;61823;-78
2023/07/27 03:55:48;;;;;;;18.50;15.10;;;;;;;19.72;100.00;98300.27;108493;1235;60278;-78
2023/07/27 03:58:14;;;;;;;19.40;15.10;;;;;;;19.70;100.00;98288.33;108478;1235;72365;-79
2023/07/27 04:00:41;;;;;;;20.30;14.80;;;;;;;19.65;100.00;98272.36;108581;1234;71022;-78
2023/07/27 04:03:08;;;;;;;19.00;15.10;;;;;;;19.62;100.00;98262.46;108947;1234;72359;-78
2023/07/27 04:05:35;;;;;;;20.90;15.30;;;;;;;19.55;100.00;98266.01;108894;1234;61723;-78
2023/07/27 04:08:02;;;;;;;18.10;14.90;;;;;;;19.44;100.00;98286.76;108663;1239;60442;-79
2023/07/27 04:10:29;;;;;;;15.30;13.50;;;;;;;19.35;100.00;98299.19;108732;1237;73776;-79
2023/07/27 04:12:57;;;;;;;15.50;13.60;;;;;;;19.32;100.00;98310.05;108698;1237;70908;-77
2023/07/27 04:15:24;;;;;;;14.10;12.50;;;;;;;19.33;100.00;98313.35;108743;1235;71093;-79
2023/07/27 04:17:51;;;;;;;18.50;12.50;;;;;;;19.36;100.00;98318.79;108624;1234;61663;-78
2023/07/27 04:20:18;;;;;;;15.30;12.00;;;;;;;19.40;100.00;98321.09;108793;1234;60445;-79
2023/07/27 04:22:44;;;;;;;13.80;12.30;;;;;;;19.45;100.00;98319.89;108713;1236;73595;-79
2023/07/27 04:25:11;;;;;;;16.40;11.60;;;;;;;19.50;100.00;98320.14;108665;1234;60541;-77
2023/07/27 04:27:38;;;;;;;17.60;13.60;;;;;;;19.55;100.00;98318.44;108717;1234;60532;-78
2023/07/27 04:30:06;;;;;;;13.60;12.20;;;;;;;19.59;100.00;98311.01;108671;1234;60714;-78
2023/07/27 04:32:33;;;;;;;17.00;13.10;;;;;;;19.63;100.00;98311.65;108730;1234;60539;-78
2023/07/27 04:34:59;;;;;;;15.10;12.80;;;;;;;19.69;100.00;98313.86;108547;1238;73497;-78
2023/07/27 04:37:26;;;;;;;12.60;11.30;;;;;;;19.74;100.00;98318.59;108675;1235;70698;-80
2023/07/27 04:39:53;;;;;;;14.20;12.10;;;;;;;19.79;100.00;98325.75;108675;1237;71465;-82
2023/07/27 04:42:20;;;;;;;15.10;13.50;;;;;;;19.84;100.00;98322.41;108711;1233;61613;-78
2023/07/27 04:44:46;;;;;;;15.30;13.70;;;;;;;19.89;100.00;98312.20;108677;1232;60539;-80
2023/07/27 04:47:13;;;;;;;17.90;15.10;;;;;;;19.93;100.00;98320.38;108693;1237;73774;-78
2023/07/27 04:49:40;;;;;;;16.90;15.10;;;;;;;19.95;100.00;98323.07;108544;1233;69744;-78
2023/07/27 04:52:07;;;;;;;16.80;14.90;;;;;;;19.97;100.00;98328.39;108657;1236;71396;-78
2023/07/27 04:54:33;;;;;;;13.10;11.70;;;;;;;19.96;100.00;98327.71;108484;1237;61556;-78
2023/07/27 04:57:00;;;;;;;11.60;10.50;;;;;;;19.95;100.00;98317.88;108663;1236;60462;-80
2023/07/27 04:59:27;;;;;;;13.50;10.20;;;;;;;19.94;100.00;98313.52;108616;1235;73589;-77
2023/07/27 05:01:53;;;;;;;11.40;10.00;;;;;;;19.92;100.00;98309.08;108703;1236;69996;-79
2023/07/27 05:04:20;;;;;;;10.00;9.00;;;;;;;19.90;100.00;98303.20;108744;1236;73002;-79
2023/07/27 05:06:46;;;;;;;10.80;9.10;;;;;;;19.88;100.00;98296.95;108695;1235;60444;-79
2023/07/27 05:09:14;;;;;;;9.10;8.30;;;;;;;19.88;100.00;98290.54;108705;1233;60433;-79
2023/07/27 05:11:41;;;;;;;9.70;8.80;;;;;;;19.89;100.00;98284.05;108818;1236;73555;-78
2023/07/27 05:14:07;;;;;;;11.70;8.50;;;;;;;19.91;100.00;98271.96;108688;1235;69817;-79
2023/07/27 05:16:34;;;;;;;8.70;7.80;;;;;;;19.93;100.00;98266.79;108692;1233;72110;-78
2023/07/27 05:19:02;;;;;;;7.10;6.50;;;;;;;19.95;100.00;98259.88;108661;1237;61646;-79
2023/07/27 05:21:28;;;;;;;6.60;6.00;;;;;;;19.97;100.00;98255.55;108738;1235;60577;-80
2023/07/27 05:23:55;;;;;;;6.70;6.20;;;;;;;19.99;100.00;98249.84;108602;1236;60458;-78
2023/07/27 05:26:21;;;;;;;6.70;6.00;;;;;;;20.03;100.00;98245.77;108722;1234;60439;-79
2023/07/27 05:28:48;;;;;;;6.90;6.30;;;;;;;20.06;100.00;98250.82;108725;1237;71437;-79
2023/07/27 05:31:15;;;;;;;6.10;5.70;;;;;;;20.09;100.00;98249.36;108635;1234;60517;-78
2023/07/27 05:33:41;;;;;;;6.00;5.50;;;;;;;20.09;100.00;98247.70;108691;1236;60599;-79
2023/07/27 05:36:08;;;;;;;6.20;5.60;;;;;;;20.12;100.00;98246.41;108671;1235;73586;-78
2023/07/27 05:38:35;;;;;;;7.50;6.80;;;;;;;20.15;100.00;98233.40;108614;1234;70899;-79
2023/07/27 05:41:02;;;;;;;7.00;6.30;;;;;;;20.18;100.00;98218.13;108648;1233;72338;-77
2023/07/27 05:43:29;;;;;;;7.10;6.50;;;;;;;20.21;100.00;98208.27;108640;1234;61803;-79
2023/07/27 05:45:56;;;;;;;7.10;6.50;;;;;;;20.25;100.00;98214.67;108688;1235;60545;-78
2023/07/27 05:48:23;;;;;;;7.60;7.00;;;;;;;20.28;100.00;98214.77;108786;1236;72234;-79
2023/07/27 05:50:52;;;;;;;7.50;6.70;;;;;;;20.33;100.00;98220.83;108671;1237;69673;-79
2023/07/27 05:53:19;;;;;;;7.50;6.80;;;;;;;20.37;100.00;98213.48;108776;1234;72520;-79
2023/07/27 05:55:45;;;;;;;9.40;7.00;;;;;;;20.44;100.00;98210.23;108637;1236;60544;-78
2023/07/27 05:58:12;;;;;;;7.90;7.20;;;;;;;20.47;100.00;98207.21;108658;1235;60329;-80
2023/07/27 06:01:03;;;;;;;7.40;6.70;;;;;;;20.52;100.00;98213.21;108676;1235;73584;-79
2023/07/27 06:03:31;;;;;;;7.10;6.20;;;;;;;20.57;100.00;98221.25;108690;1234;70943;-78
2023/07/27 06:05:57;;;;;;;6.90;6.30;;;;;;;20.61;100.00;98231.03;108726;1233;72323;-80
2023/07/27 06:08:24;;;;;;;6.70;6.10;;;;;;;20.64;100.00;98234.49;108656;1232;61851;-79
2023/07/27 06:11:06;;;;;;;6.90;6.30;;;;;;;20.68;100.00;98229.84;108558;1234;60421;-79
2023/07/27 06:13:33;;;;;;;6.60;6.00;;;;;;;20.72;100.00;98229.45;108740;1237;73533;-78
2023/07/27 06:16:00;;;;;;;8.20;7.40;;;;;;;20.75;100.00;98226.45;108562;1235;69981;-80
2023/07/27 06:18:27;;;;;;;9.60;8.70;;;;;;;20.75;100.00;98235.84;108755;1235;71594;-79
2023/07/27 06:20:54;;;;;;;9.20;8.40;;;;;;;20.68;100.00;98238.88;108685;1238;61583;-81
2023/07/27 06:23:20;;;;;;;9.20;8.30;;;;;;;20.63;100.00;98237.80;108678;1234;60442;-79
2023/07/27 06:25:47;;;;;;;9.60;8.60;;;;;;;20.57;100.00;98237.93;108686;1238;73722;-80
2023/07/27 06:28:14;;;;;;;8.50;7.80;;;;;;;20.49;100.00;98238.75;108780;1235;70848;-79
2023/07/27 06:30:41;;;;;;;9.80;8.80;;;;;;;20.41;100.00;98242.89;108665;1233;71132;-79
2023/07/27 06:33:07;;;;;;;9.70;8.40;;;;;;;20.37;100.00;98247.84;108701;1234;61670;-79
2023/07/27 06:35:34;;;;;;;9.60;8.60;;;;;;;20.36;100.00;98245.85;108642;1234;60452;-79
2023/07/27 06:38:01;;;;;;;10.80;9.70;;;;;;;20.36;100.00;98250.69;108722;1236;73734;-80
2023/07/27 06:40:27;;;;;;;11.60;9.60;;;;;;;20.33;100.00;98254.35;108725;1234;71106;-80
2023/07/27 06:42:54;;;;;;;11.10;10.00;;;;;;;20.30;100.00;98262.05;108666;1236;72494;-80
2023/07/27 06:45:21;;;;;;;11.20;10.10;;;;;;;20.30;100.00;98270.83;108734;1234;61647;-79
2023/07/27 06:47:48;;;;;;;12.40;11.20;;;;;;;20.27;100.00;98274.30;108708;1236;60377;-80
2023/07/27 06:50:15;;;;;;;12.30;11.00;;;;;;;20.21;100.00;98275.73;108660;1236;73534;-81
2023/07/27 06:52:42;;;;;;;10.60;9.50;;;;;;;20.15;100.00;98274.77;108693;1237;70874;-79
2023/07/27 06:55:09;;;;;;;11.30;10.10;;;;;;;20.11;100.00;98278.54;108639;1234;72465;-81
2023/07/27 06:57:36;;;;;;;11.10;9.30;;;;;;;20.09;100.00;98276.00;108775;1232;61703;-79
2023/07/27 07:00:03;;;;;;;13.80;9.70;;;;;;;20.10;100.00;98269.70;108713;1236;60462;-78
2023/07/27 07:02:30;;;;;;;11.10;9.80;;;;;;;20.12;100.00;98276.05;109173;1233;73766;-78
2023/07/27 07:04:57;;;;;;;12.10;9.60;;;;;;;20.14;100.00;98273.97;108148;1237;733619;-78
2023/07/27 07:07:24;;;;;;;10.40;9.40;;;;;;;20.15;100.00;98276.02;108739;1235;72386;-77
2023/07/27 07:09:52;;;;;;;9.50;8.70;;;;;;;20.15;100.00;98280.82;108672;1236;60420;-79
2023/07/27 07:12:19;;;;;;;10.10;9.10;;;;;;;20.12;100.00;98282.19;108719;1236;60397;-80
2023/07/27 07:14:45;;;;;;;11.30;9.20;;;;;;;20.08;100.00;98276.63;108758;1234;72338;-78
2023/07/27 07:17:12;;;;;;;10.30;9.30;;;;;;;20.07;100.00;98278.16;108874;1235;71078;-78
2023/07/27 07:19:39;;;;;;;10.40;9.50;;;;;;;20.10;100.00;98280.70;108800;1236;72414;-78
2023/07/27 07:22:06;;;;;;;9.60;8.70;;;;;;;20.15;100.00;98286.17;108739;1234;61774;-78
2023/07/27 07:24:33;;;;;;;9.90;8.80;;;;;;;20.17;100.00;98296.25;108697;1237;60420;-79
2023/07/27 07:26:59;;;;;;;9.90;8.90;;;;;;;20.20;100.00;98296.20;108767;1236;73470;-78
2023/07/27 07:29:26;;;;;;;8.90;8.10;;;;;;;20.22;100.00;98299.14;108690;1236;69407;-80
2023/07/27 07:31:53;;;;;;;8.30;7.10;;;;;;;20.21;100.00;98297.82;108541;1234;72260;-78
2023/07/27 07:34:20;;;;;;;8.90;8.00;;;;;;;20.16;100.00;98302.19;108729;1236;60476;-77
2023/07/27 07:36:47;;;;;;;8.40;7.70;;;;;;;20.12;100.00;98301.55;108789;1237;60490;-80
2023/07/27 07:39:14;;;;;;;7.40;6.80;;;;;;;20.12;100.00;98301.55;108655;1233;73771;-79
2023/07/27 07:41:41;;;;;;;7.30;6.60;;;;;;;20.12;100.00;98300.82;108675;1234;70938;-78
2023/07/27 07:44:08;;;;;;;6.40;5.80;;;;;;;20.10;100.00;98299.08;108610;1234;71715;-78
2023/07/27 07:46:35;;;;;;;7.00;6.40;;;;;;;20.10;100.00;98301.59;108708;1239;60375;-79
2023/07/27 07:49:02;;;;;;;6.10;5.50;;;;;;;20.15;100.00;98299.33;108775;1236;60424;-78
2023/07/27 07:51:29;;;;;;;5.60;5.00;;;;;;;20.16;100.00;98298.98;108698;1236;73602;-78
2023/07/27 07:53:56;;;;;;;4.40;4.00;;;;;;;20.15;100.00;98300.70;108739;1233;70845;-78
2023/07/27 07:56:23;;;;;;;5.80;3.50;;;;;;;20.14;100.00;98297.24;108747;1236;72362;-79
2023/07/27 07:58:51;;;;;;;3.30;3.10;;;;;;;20.13;100.00;98297.38;108722;1232;60443;-79
2023/07/27 08:01:18;;;;;;;3.20;3.00;;;;;;;20.11;100.00;98295.45;108788;1236;60539;-79
2023/07/27 08:03:44;;;;;;;3.40;2.70;;;;;;;20.09;100.00;98295.98;108761;1237;73458;-78
2023/07/27 08:06:12;;;;;;;2.70;2.50;;;;;;;20.08;100.00;98297.51;108924;1235;70818;-79
2023/07/27 08:08:38;;;;;;;2.90;2.70;;;;;;;20.09;100.00;98303.80;108757;1244;71328;-77
2023/07/27 08:11:05;;;;;;;3.00;2.80;;;;;;;20.09;100.00;98304.13;108748;1236;61810;-80
2023/07/27 08:13:33;;;;;;;3.10;2.80;;;;;;;20.12;100.00;98306.02;108795;1235;60417;-79
2023/07/27 08:16:03;;;;;;;2.50;2.30;;;;;;;20.17;100.00;98305.34;108735;1236;73835;-79
2023/07/27 08:18:31;;;;;;;2.60;2.30;;;;;;;20.21;100.00;98306.39;108743;1236;70973;-78
2023/07/27 08:20:59;;;;;;;2.20;2.10;;;;;;;20.22;100.00;98306.98;108747;1236;71149;-78
2023/07/27 08:23:26;;;;;;;2.20;2.10;;;;;;;20.21;100.00;98311.06;108745;1234;61660;-78
2023/07/27 08:25:53;;;;;;;1.90;1.80;;;;;;;20.19;100.00;98315.98;108715;1234;60449;-79
2023/07/27 08:28:20;;;;;;;2.70;2.50;;;;;;;20.19;100.00;98316.38;108776;1236;73792;-79
2023/07/27 08:30:47;;;;;;;2.20;2.00;;;;;;;20.19;100.00;98319.35;108736;1236;70028;-80
2023/07/27 08:33:14;;;;;;;1.90;1.80;;;;;;;20.20;100.00;98316.48;108769;1234;72552;-81
2023/07/27 08:35:41;;;;;;;2.80;1.70;;;;;;;20.19;100.00;98323.31;108706;1233;60555;-77
2023/07/27 08:38:08;;;;;;;2.40;2.20;;;;;;;20.17;100.00;98327.42;108767;1237;60543;-78
2023/07/27 08:40:35;;;;;;;2.40;2.20;;;;;;;20.15;100.00;98329.05;108731;1236;72232;-77
2023/07/27 08:43:07;;;;;;;2.40;2.20;;;;;;;20.14;100.00;98333.42;108760;1235;70717;-79
2023/07/27 08:45:34;;;;;;;2.50;2.30;;;;;;;20.16;100.00;98336.83;108719;1233;70994;-78
2023/07/27 08:48:01;;;;;;;2.50;2.30;;;;;;;20.15;100.00;98344.69;108719;1234;61754;-78
2023/07/27 08:50:29;;;;;;;3.90;2.40;;;;;;;20.13;100.00;98343.66;108794;1236;60417;-77
2023/07/27 08:52:56;;;;;;;2.60;2.30;;;;;;;20.15;100.00;98341.51;108746;1234;73901;-79
2023/07/27 08:55:23;;;;;;;2.80;2.60;;;;;;;20.19;100.00;98339.69;108733;1233;69438;-78
2023/07/27 08:57:49;;;;;;;4.70;2.80;;;;;;;20.22;100.00;98334.09;108732;1236;72486;-79
2023/07/27 09:00:16;;;;;;;3.80;2.50;;;;;;;20.24;100.00;98328.95;108708;1236;61108;-78
2023/07/27 09:02:43;;;;;;;4.50;2.10;;;;;;;20.25;100.00;98331.36;108802;1235;60431;-78
2023/07/27 09:05:12;;;;;;;2.50;1.90;;;;;;;20.24;100.00;98340.16;108640;1236;73746;-79
2023/07/27 09:07:40;;;;;;;3.60;1.80;;;;;;;20.22;100.00;98345.83;108685;1234;71034;-79
2023/07/27 09:10:08;;;;;;;2.20;2.00;;;;;;;20.16;100.00;98343.86;108729;1234;72301;-79
2023/07/27 09:12:35;;;;;;;3.70;2.10;;;;;;;20.12;100.00;98336.66;108839;1238;60433;-79
2023/07/27 09:15:15;;;;;;;1.80;1.70;;;;;;;20.12;100.00;98335.96;108633;1239;60415;-79
2023/07/27 09:17:42;;;;;;;4.00;1.80;;;;;;;20.16;100.00;98334.13;108785;1237;72836;-78
2023/07/27 09:20:12;;;;;;;3.20;1.90;;;;;;;20.18;100.00;98333.69;108599;1239;70833;-80
2023/07/27 09:22:39;;;;;;;2.10;1.60;;;;;;;20.18;100.00;98337.42;108523;1235;72227;-79
2023/07/27 09:25:06;;;;;;;2.20;1.60;;;;;;;20.16;100.00;98338.73;108766;1236;61708;-79
2023/07/27 09:27:43;;;;;;;1.50;1.40;;;;;;;20.13;100.00;98339.52;108821;1234;60340;-80
2023/07/27 09:30:11;;;;;;;1.70;1.10;;;;;;;20.14;100.00;98346.40;107949;1236;1002989;-80
2023/07/27 09:32:38;;;;;;;1.70;1.60;;;;;;;20.16;100.00;98346.70;108833;1234;70898;-79
2023/07/27 09:35:06;;;;;;;2.60;2.20;;;;;;;20.18;100.00;98343.52;108685;1237;71500;-80
2023/07/27 09:37:33;;;;;;;4.30;2.70;;;;;;;20.17;100.00;98344.10;108572;1239;60455;-79
2023/07/27 09:40:10;;;;;;;3.70;3.50;;;;;;;20.15;100.00;98345.60;108724;1235;60486;-81
2023/07/27 09:42:37;;;;;;;4.40;4.00;;;;;;;20.12;100.00;98346.45;108752;1237;73726;-80
2023/07/27 09:45:05;;;;;;;5.00;4.60;;;;;;;20.10;100.00;98342.48;108721;1233;70159;-80
2023/07/27 09:47:32;;;;;;;5.30;4.80;;;;;;;20.10;100.00;98343.38;108802;1236;72320;-81
2023/07/27 09:50:01;;;;;;;5.80;5.30;;;;;;;20.14;100.00;98344.47;108712;1236;60457;-80
2023/07/27 09:52:29;;;;;;;8.10;5.20;;;;;;;20.17;100.00;98343.23;108721;1234;60430;-83
2023/07/27 09:54:59;;;;;;;5.50;5.10;;;;;;;20.23;100.00;98337.77;108756;1240;73788;-80
2023/07/27 09:57:26;;;;;;;6.20;5.50;;;;;;;20.26;100.00;98337.11;108759;1237;69912;-81
2023/07/27 09:59:53;;;;;;;5.60;5.10;;;;;;;20.28;100.00;98331.23;109583;1235;72346;-79
2023/07/27 10:02:20;;;;;;;6.30;5.70;;;;;;;20.29;100.00;98328.07;108839;1232;61633;-80
2023/07/27 10:04:58;;;;;;;7.90;7.00;;;;;;;20.28;100.00;98317.81;108767;1235;60539;-78
2023/07/27 10:07:25;;;;;;;6.90;6.30;;;;;;;20.25;100.00;98316.32;108697;1237;72559;-82
2023/07/27 10:10:27;;;;;;;7.10;6.50;;;;;;;20.23;100.00;98327.00;108799;1234;70828;-80
2023/07/27 10:12:56;;;;;;;14.70;7.90;;;;;;;20.25;100.00;98337.88;108740;1233;73044;-81
2023/07/27 10:15:27;;;;;;;9.40;6.40;;;;;;;20.34;100.00;98335.95;108782;1232;60525;-81
2023/07/27 10:17:58;;;;;;;9.10;6.60;;;;;;;20.51;100.00;98341.02;108727;1233;60491;-82
2023/07/27 10:20:27;;;;;;;6.90;6.30;;;;;;;20.65;100.00;98343.56;108824;1234;73807;-80
2023/07/27 10:23:09;;;;;;;10.30;7.00;;;;;;;20.75;100.00;98342.85;108789;1237;71134;-81
2023/07/27 10:25:58;;;;;;;6.90;6.20;;;;;;;20.75;100.00;98343.46;108761;1237;71219;-82
2023/07/27 10:28:43;;;;;;;5.60;5.10;;;;;;;20.58;100.00;98330.48;108654;1233;61311;-79
2023/07/27 10:31:25;;;;;;;8.30;5.10;;;;;;;20.30;100.00;98337.98;108692;1235;60454;-80
2023/07/27 10:34:07;;;;;;;6.20;5.40;;;;;;;20.00;100.00;98345.91;108688;1237;72196;-79
2023/07/27 10:36:59;;;;;;;7.10;6.10;;;;;;;19.79;100.00;98350.50;108818;1233;69550;-79
2023/07/27 10:39:46;;;;;;;11.90;7.20;;;;;;;19.69;100.00;98372.35;108777;1234;72521;-79
2023/07/27 10:42:23;;;;;;;6.50;5.70;;;;;;;19.63;100.00;98382.84;108605;1237;60434;-81
2023/07/27 10:44:57;;;;;;;10.00;6.50;;;;;;;19.63;100.00;98388.91;108682;1234;60417;-81
2023/07/27 10:47:37;;;;;;;7.20;6.60;;;;;;;19.60;100.00;98384.67;108797;1232;73532;-82
2023/07/27 10:50:04;;;;;;;8.40;6.20;;;;;;;19.56;100.00;98387.58;108703;1237;69993;-81
2023/07/27 10:52:33;;;;;;;7.30;5.80;;;;;;;19.52;100.00;98386.89;108773;1236;72426;-81
2023/07/27 10:55:02;;;;;;;6.00;5.30;;;;;;;19.47;100.00;98392.42;108685;1237;60595;-79
2023/07/27 10:57:31;;;;;;;6.00;5.40;;;;;;;19.38;100.00;98388.14;108713;1233;60545;-81
2023/07/27 10:59:58;;;;;;;5.20;4.80;;;;;;;19.27;100.00;98387.46;108723;1236;74063;-80
2023/07/27 11:02:30;;;;;;;4.90;4.50;;;;;;;19.15;100.00;98388.85;108699;1237;69534;-81
2023/07/27 11:04:58;;;;;;;4.70;4.40;;;;;;;19.06;100.00;98398.25;108753;1236;72570;-80
2023/07/27 11:07:33;;;;;;;5.60;3.90;;;;;;;18.99;100.00;98396.66;108682;1236;61738;-81
2023/07/27 11:10:11;;;;;;;4.60;4.20;;;;;;;18.99;100.00;98399.05;108765;1236;60517;-81
2023/07/27 11:12:46;;;;;;;3.80;3.50;;;;;;;19.04;100.00;98400.85;108729;1235;72359;-78
2023/07/27 11:15:33;;;;;;;3.50;3.20;;;;;;;19.12;100.00;98392.86;108781;1236;69685;-81
2023/07/27 11:17:59;;;;;;;4.00;3.30;;;;;;;19.23;100.00;98392.48;108701;1238;71113;-81